createdAt,value
2022-11-09T00:00:59.538Z,75
2022-11-09T00:04:24.803Z,75
2022-11-09T00:07:50.021Z,75
2022-11-09T00:11:15.254Z,75
2022-11-09T00:14:40.466Z,75
2022-11-09T00:18:05.709Z,75
2022-11-09T00:21:30.974Z,75
2022-11-09T00:24:56.256Z,74
2022-11-09T00:28:21.567Z,73
2022-11-09T00:31:46.765Z,73
2022-11-09T00:35:12.021Z,73
2022-11-09T00:38:37.312Z,73
2022-11-09T00:42:02.533Z,73
2022-11-09T00:45:27.820Z,73
2022-11-09T00:48:53.033Z,73
2022-11-09T00:52:18.295Z,73
2022-11-09T00:55:43.550Z,74
2022-11-09T00:59:08.812Z,74
2022-11-09T01:02:34.087Z,74
2022-11-09T01:05:59.289Z,74
2022-11-09T01:09:24.514Z,75
2022-11-09T01:12:49.748Z,74
2022-11-09T01:16:15.015Z,74
2022-11-09T01:19:40.333Z,74
2022-11-09T01:23:05.574Z,73
2022-11-09T01:26:30.854Z,73
2022-11-09T01:29:56.119Z,73
2022-11-09T01:33:21.570Z,73
2022-11-09T01:36:46.665Z,73
2022-11-09T01:40:11.879Z,73
2022-11-09T01:43:37.104Z,73
2022-11-09T01:47:02.344Z,73
2022-11-09T01:50:27.571Z,74
2022-11-09T01:53:52.884Z,74
2022-11-09T01:57:18.062Z,74
2022-11-09T02:00:43.285Z,74
2022-11-09T02:04:08.555Z,75
2022-11-09T02:07:33.860Z,75
2022-11-09T02:10:59.148Z,75
2022-11-09T02:14:24.420Z,75
2022-11-09T02:17:49.638Z,76
2022-11-09T02:21:14.937Z,76
2022-11-09T02:24:40.163Z,76
2022-11-09T02:28:05.457Z,76
2022-11-09T02:31:30.675Z,76
2022-11-09T02:34:55.915Z,76
2022-11-09T02:38:21.146Z,76
2022-11-09T02:41:46.402Z,76
2022-11-09T02:45:11.710Z,76
2022-11-09T02:48:36.928Z,77
2022-11-09T02:52:02.146Z,77
2022-11-09T02:55:27.395Z,77
2022-11-09T02:58:52.615Z,77
2022-11-09T03:02:17.857Z,76
2022-11-09T03:05:43.043Z,76
2022-11-09T03:09:08.293Z,76
2022-11-09T03:12:33.522Z,76
2022-11-09T03:15:58.744Z,76
2022-11-09T03:19:23.991Z,76
2022-11-09T03:22:49.194Z,76
2022-11-09T03:26:14.410Z,76
2022-11-09T03:29:39.625Z,76
2022-11-09T03:33:04.902Z,77
2022-11-09T03:36:30.176Z,78
2022-11-09T03:39:55.365Z,79
2022-11-09T03:43:20.882Z,79
2022-11-09T03:46:45.847Z,80
2022-11-09T03:50:11.070Z,80
2022-11-09T03:53:36.322Z,80
2022-11-09T03:57:01.540Z,80
2022-11-09T04:00:26.758Z,81
2022-11-09T04:03:51.988Z,81
2022-11-09T04:07:17.247Z,81
2022-11-09T04:10:42.563Z,81
2022-11-09T04:14:07.617Z,81
2022-11-09T04:17:32.860Z,81
2022-11-09T04:20:58.105Z,81
2022-11-09T04:24:23.310Z,82
2022-11-09T04:27:48.724Z,82
2022-11-09T04:31:13.846Z,83
2022-11-09T04:34:39.154Z,83
2022-11-09T04:38:04.388Z,83
2022-11-09T04:41:29.651Z,83
2022-11-09T04:44:55.107Z,83
2022-11-09T04:48:20.224Z,84
2022-11-09T04:51:45.451Z,85
2022-11-09T04:55:10.680Z,85
2022-11-09T04:58:35.954Z,86
2022-11-09T05:02:01.289Z,86
2022-11-09T05:05:26.489Z,87
2022-11-09T05:08:51.749Z,87
2022-11-09T05:12:17.030Z,87
2022-11-09T05:15:42.252Z,87
2022-11-09T05:19:07.864Z,87
2022-11-09T05:22:33.096Z,86
2022-11-09T05:25:58.364Z,87
2022-11-09T05:29:23.642Z,87
2022-11-09T05:32:49.815Z,87
2022-11-09T05:36:15.070Z,87
2022-11-09T05:39:40.297Z,87
2022-11-09T05:43:05.584Z,88
2022-11-09T05:46:30.794Z,89
2022-11-09T05:49:56.023Z,89
2022-11-09T05:53:21.604Z,89
2022-11-09T05:56:46.548Z,89
2022-11-09T06:00:11.747Z,89
2022-11-09T06:03:36.982Z,89
2022-11-09T06:07:02.335Z,89
2022-11-09T06:10:27.570Z,89
2022-11-09T06:13:52.784Z,89
2022-11-09T06:17:18.051Z,89
2022-11-09T06:20:43.344Z,89
2022-11-09T06:24:08.592Z,90
2022-11-09T06:27:33.884Z,90
2022-11-09T06:30:59.115Z,90
2022-11-09T06:34:24.357Z,91
2022-11-09T06:37:49.602Z,91
2022-11-09T06:41:14.850Z,91
2022-11-09T06:44:40.078Z,92
2022-11-09T06:48:05.272Z,92
2022-11-09T06:51:30.562Z,92
2022-11-09T06:54:55.810Z,92
2022-11-09T06:58:21.032Z,92
2022-11-09T07:01:46.300Z,92
2022-11-09T07:05:11.509Z,92
2022-11-09T07:08:36.741Z,93
2022-11-09T07:12:01.965Z,93
2022-11-09T07:15:27.249Z,93
2022-11-09T07:18:52.489Z,93
2022-11-09T07:22:17.712Z,93
2022-11-09T07:25:42.942Z,93
2022-11-09T07:29:08.161Z,94
2022-11-09T07:33:02.348Z,94
2022-11-09T07:35:58.717Z,94
2022-11-09T07:39:23.836Z,94
2022-11-09T07:42:49.073Z,94
2022-11-09T07:46:14.323Z,94
2022-11-09T07:49:39.610Z,95
2022-11-09T07:53:04.953Z,95
2022-11-09T07:56:30.072Z,94
2022-11-09T07:59:55.297Z,95
2022-11-09T08:03:22.233Z,95
2022-11-09T08:06:47.129Z,95
2022-11-09T08:10:12.408Z,95
2022-11-09T08:13:37.652Z,96
2022-11-09T08:17:02.893Z,96
2022-11-09T08:20:28.203Z,96
2022-11-09T08:23:53.466Z,96
2022-11-09T08:27:18.805Z,97
2022-11-09T08:30:44.010Z,97
2022-11-09T08:34:09.303Z,97
2022-11-09T08:37:34.576Z,97
2022-11-09T08:40:59.919Z,97
2022-11-09T08:44:25.159Z,97
2022-11-09T08:47:50.412Z,97
2022-11-09T08:51:15.668Z,97
2022-11-09T08:54:40.938Z,97
2022-11-09T08:58:06.199Z,97
2022-11-09T09:01:31.501Z,97
2022-11-09T09:04:56.717Z,97
2022-11-09T09:08:22.402Z,97
2022-11-09T09:11:47.244Z,97
2022-11-09T09:15:12.539Z,96
2022-11-09T09:18:37.893Z,96
2022-11-09T09:22:03.082Z,96
2022-11-09T09:25:28.335Z,97
2022-11-09T09:28:53.608Z,96
2022-11-09T09:32:18.858Z,96
2022-11-09T09:35:44.137Z,96
2022-11-09T09:39:09.334Z,96
2022-11-09T09:42:34.550Z,96
2022-11-09T09:45:59.787Z,96
2022-11-09T09:49:25.016Z,96
2022-11-09T09:53:04.939Z,96
2022-11-09T09:56:15.458Z,97
2022-11-09T09:59:40.700Z,97
2022-11-09T10:03:05.935Z,96
2022-11-09T10:06:31.190Z,97
2022-11-09T10:09:56.424Z,96
2022-11-09T10:13:21.592Z,97
2022-11-09T10:16:46.850Z,97
2022-11-09T10:20:12.085Z,96
2022-11-09T10:23:37.301Z,97
2022-11-09T10:27:02.602Z,95
2022-11-09T10:30:27.799Z,96
2022-11-09T10:33:53.028Z,96
2022-11-09T10:37:18.242Z,95
2022-11-09T10:40:43.447Z,95
2022-11-09T10:44:11.324Z,96
2022-11-09T10:47:34.082Z,96
2022-11-09T10:50:59.585Z,96
2022-11-09T10:54:24.826Z,96
2022-11-09T10:57:50.050Z,94
2022-11-09T11:01:15.443Z,95
2022-11-09T11:04:40.607Z,94
2022-11-09T11:08:05.923Z,94
2022-11-09T11:11:34.119Z,94
2022-11-09T11:14:56.494Z,94
2022-11-09T11:18:21.807Z,93
2022-11-09T11:21:47.009Z,93
2022-11-09T11:25:12.307Z,93
2022-11-09T11:28:37.734Z,93
2022-11-09T11:32:02.872Z,93
2022-11-09T11:35:28.122Z,92
2022-11-09T11:38:53.343Z,92
2022-11-09T11:42:18.717Z,93
2022-11-09T11:45:44.472Z,92
2022-11-09T11:49:09.784Z,92
2022-11-09T11:52:35.615Z,91
2022-11-09T11:56:01.190Z,91
2022-11-09T11:59:26.864Z,91
2022-11-09T12:02:52.396Z,92
2022-11-09T12:06:17.850Z,93
2022-11-09T12:09:43.433Z,92
2022-11-09T12:13:08.926Z,91
2022-11-09T12:16:34.376Z,92
2022-11-09T12:19:59.904Z,93
2022-11-09T12:23:25.375Z,92
2022-11-09T12:27:04.977Z,92
2022-11-09T12:30:16.779Z,92
2022-11-09T12:33:43.535Z,93
2022-11-09T12:37:07.538Z,93
2022-11-09T12:40:32.797Z,92
2022-11-09T12:43:58.071Z,92
2022-11-09T12:47:23.303Z,92
2022-11-09T12:50:48.574Z,92
2022-11-09T12:54:13.878Z,92
2022-11-09T12:57:39.153Z,92
2022-11-09T13:01:04.447Z,92
2022-11-09T13:04:29.676Z,92
2022-11-09T13:07:54.939Z,92
2022-11-09T13:11:20.204Z,92
2022-11-09T13:14:45.469Z,92
2022-11-09T13:18:10.791Z,92
2022-11-09T13:21:36.025Z,91
2022-11-09T13:25:01.299Z,91
2022-11-09T13:28:26.577Z,91
2022-11-09T13:31:51.892Z,91
2022-11-09T13:35:17.219Z,90
2022-11-09T13:38:42.497Z,90
2022-11-09T13:42:07.792Z,89
2022-11-09T13:45:33.099Z,89
2022-11-09T13:48:58.388Z,89
2022-11-09T13:52:23.688Z,89
2022-11-09T13:55:48.979Z,90
2022-11-09T13:59:14.277Z,90
2022-11-09T14:02:39.563Z,90
2022-11-09T14:06:04.862Z,90
2022-11-09T14:09:30.174Z,89
2022-11-09T14:12:55.423Z,90
2022-11-09T14:16:20.696Z,90
2022-11-09T14:19:45.989Z,90
2022-11-09T14:23:11.264Z,90
2022-11-09T14:26:36.605Z,90
2022-11-09T14:30:02.068Z,90
2022-11-09T15:05:40.983Z,90
2022-11-09T15:09:06.151Z,90
2022-11-09T15:12:31.469Z,90
2022-11-09T15:15:56.755Z,90
2022-11-09T15:19:22.048Z,90
2022-11-09T15:22:47.471Z,91
2022-11-09T15:26:12.652Z,90
2022-11-09T15:29:37.979Z,90
2022-11-09T15:33:03.279Z,90
2022-11-09T15:36:28.583Z,91
2022-11-09T15:39:53.971Z,91
2022-11-09T15:43:19.148Z,91
2022-11-09T15:46:44.395Z,91
2022-11-09T15:50:09.672Z,91
2022-11-09T15:53:34.943Z,91
2022-11-09T15:57:00.275Z,91
2022-11-09T16:00:25.549Z,91
2022-11-09T16:03:50.795Z,91
2022-11-09T16:07:16.079Z,91
2022-11-09T16:10:41.357Z,90
2022-11-09T16:14:06.629Z,90
2022-11-09T16:17:31.870Z,90
2022-11-09T16:20:57.140Z,90
2022-11-09T16:24:22.459Z,90
2022-11-09T16:27:50.459Z,90
2022-11-09T16:31:13.222Z,90
2022-11-09T16:34:38.468Z,90
2022-11-09T16:38:03.747Z,90
2022-11-09T16:41:29.010Z,90
2022-11-09T16:44:54.262Z,90
2022-11-09T16:48:19.825Z,91
2022-11-09T16:51:44.842Z,91
2022-11-09T16:55:10.186Z,90
2022-11-09T16:58:35.515Z,90
2022-11-09T17:02:00.791Z,90
2022-11-09T17:05:26.053Z,90
2022-11-09T17:08:51.287Z,90
2022-11-09T17:12:16.547Z,90
2022-11-09T17:15:41.824Z,90
2022-11-09T17:19:07.114Z,90
2022-11-09T17:22:32.415Z,90
2022-11-09T17:25:57.647Z,90
2022-11-09T17:29:22.955Z,90
2022-11-09T17:32:48.234Z,90
2022-11-09T17:36:13.487Z,90
2022-11-09T17:39:38.845Z,90
2022-11-09T17:43:04.113Z,90
2022-11-09T17:46:29.379Z,90
2022-11-09T17:49:54.673Z,90
2022-11-09T17:53:19.984Z,89
2022-11-09T17:56:45.337Z,89
2022-11-09T18:00:10.600Z,89
2022-11-09T18:03:35.899Z,89
2022-11-09T18:07:01.240Z,89
2022-11-09T18:10:26.832Z,89
2022-11-09T18:13:52.294Z,89
2022-11-09T18:17:17.712Z,90
2022-11-09T18:20:43.136Z,90
2022-11-09T18:24:08.597Z,90
2022-11-09T18:27:34.030Z,90
2022-11-09T18:30:59.489Z,90
2022-11-09T18:34:24.921Z,90
2022-11-09T18:37:50.368Z,90
2022-11-09T18:41:15.811Z,90
2022-11-09T18:44:41.248Z,91
2022-11-09T18:48:06.696Z,91
2022-11-09T18:51:32.134Z,92
2022-11-09T18:54:57.576Z,92
2022-11-09T18:58:23.304Z,92
2022-11-09T19:01:48.484Z,93
2022-11-09T19:05:13.948Z,93
2022-11-09T19:08:40.785Z,93
2022-11-09T19:12:06.529Z,94
2022-11-09T19:15:32.273Z,93
2022-11-09T19:18:57.995Z,92
2022-11-09T19:22:23.790Z,93
2022-11-09T19:25:49.535Z,94
2022-11-09T19:29:15.686Z,93
2022-11-09T19:33:00.335Z,94
2022-11-09T19:36:30.848Z,94
2022-11-09T19:39:52.089Z,93
2022-11-09T19:43:17.948Z,93
2022-11-09T19:46:43.657Z,93
2022-11-09T19:50:09.474Z,93
2022-11-09T19:53:39.618Z,93
2022-11-09T19:57:01.071Z,93
2022-11-09T20:00:26.568Z,93
2022-11-09T20:04:10.563Z,93
2022-11-09T20:07:35.402Z,92
2022-11-09T20:11:00.746Z,93
2022-11-09T20:14:26.108Z,92
2022-11-09T20:17:51.423Z,92
2022-11-09T20:21:16.975Z,92
2022-11-09T20:24:42.303Z,92
2022-11-09T20:28:07.628Z,92
2022-11-09T20:31:32.997Z,92
2022-11-09T20:34:58.283Z,92
2022-11-09T20:38:23.908Z,92
2022-11-09T20:41:48.971Z,92
2022-11-09T20:45:14.307Z,92
2022-11-09T20:48:53.164Z,92
2022-11-09T20:52:04.972Z,92
2022-11-09T20:55:30.343Z,92
2022-11-09T20:58:55.689Z,92
2022-11-09T21:02:21.093Z,92
2022-11-09T21:05:50.488Z,92
2022-11-09T21:09:11.802Z,92
2022-11-09T21:12:37.147Z,92
2022-11-09T21:16:02.512Z,92
2022-11-09T21:19:27.845Z,92
2022-11-09T21:22:53.199Z,93
2022-11-09T21:26:18.528Z,92
2022-11-09T21:29:43.913Z,92
2022-11-09T21:33:09.235Z,92
2022-11-09T21:36:34.571Z,92
2022-11-09T21:39:59.974Z,92
2022-11-09T21:43:25.179Z,92
2022-11-09T21:46:50.411Z,92
2022-11-09T21:50:15.630Z,92
2022-11-09T21:53:40.862Z,92
2022-11-09T21:57:06.128Z,92
2022-11-09T22:00:31.333Z,92
2022-11-09T22:03:56.566Z,92
2022-11-09T22:07:21.785Z,92
2022-11-09T22:10:47.100Z,92
2022-11-09T22:14:12.262Z,92
2022-11-09T22:17:37.452Z,92
2022-11-09T22:21:02.695Z,92
2022-11-09T22:24:27.917Z,92
2022-11-09T22:27:53.135Z,93
2022-11-09T22:31:18.503Z,93
2022-11-09T22:34:43.739Z,93
2022-11-09T22:38:08.966Z,93
2022-11-09T22:41:34.209Z,93
2022-11-09T22:44:59.432Z,94
2022-11-09T22:48:24.647Z,93
2022-11-09T22:51:49.853Z,93
2022-11-09T22:55:15.089Z,93
2022-11-09T22:58:40.320Z,93
2022-11-09T23:02:05.577Z,93
2022-11-09T23:05:30.833Z,93
2022-11-09T23:08:56.031Z,93
2022-11-09T23:12:21.261Z,92
2022-11-09T23:15:46.498Z,92
2022-11-09T23:19:11.747Z,93
2022-11-09T23:22:36.996Z,92
2022-11-09T23:26:02.189Z,92
2022-11-09T23:29:27.416Z,92
2022-11-09T23:32:52.627Z,91
2022-11-09T23:36:17.862Z,91
2022-11-09T23:39:43.128Z,92
2022-11-09T23:43:08.334Z,92
2022-11-09T23:46:33.564Z,92
2022-11-09T23:49:58.779Z,92
2022-11-09T23:53:24.172Z,92
2022-11-09T23:56:49.228Z,91
